Unity, Oregon
Current Conditions -  °F | °C
As of 1:53 PM on Sunday 21 Dec 2014 (Local Time) from KBKE Reporting Station
Light Rain Light Rain  
Wind Chill: 38°   Ceiling: 6500
Heat Index: 41°   Visibility: 10mi
Dew Point: 38°   Wind: 5mph
Humidity: 89%   Direction: 120°ESE
Pressure: 29.98"   Gusts: NA
Location:  44.44°N, 118.19°W
Report Text: KBKE 212153Z AUTO 12004KT 10SM -RA OVC065 05/03 A2998 RMK AO2 SLPNO P0000 T00500033 TSNO
Loading
Personal Weather Stations






























Interactive Weather Map New forecast layout! Learn more

10-Day Weather Forecast

Advertisements
Track Severe Weather on mobile